createdAt,value
2022-10-04T00:01:11.862Z,2.22
2022-10-04T00:04:20.171Z,1.60
2022-10-04T00:07:26.558Z,1.67
2022-10-04T00:10:34.878Z,1.80
2022-10-04T00:13:38.648Z,1.63
2022-10-04T00:16:44.284Z,1.55
2022-10-04T00:19:49.984Z,1.73
2022-10-04T00:23:26.401Z,1.88
2022-10-04T00:26:28.704Z,1.83
2022-10-04T00:29:34.922Z,2.25
2022-10-04T00:32:40.775Z,1.85
2022-10-04T00:35:48.942Z,1.42
2022-10-04T00:39:05.037Z,1.52
2022-10-04T00:42:17.965Z,1.95
2022-10-04T00:45:36.900Z,2.08
2022-10-04T00:48:47.886Z,1.83
2022-10-04T00:52:15.017Z,1.65
2022-10-04T00:55:44.945Z,1.67
2022-10-04T00:59:29.165Z,2.70
2022-10-04T01:02:46.714Z,2.05
2022-10-04T01:05:55.993Z,1.60
2022-10-04T01:09:05.857Z,2.17
2022-10-04T01:12:19.166Z,2.22
2022-10-04T01:15:42.997Z,1.92
2022-10-04T01:18:46.928Z,1.77
2022-10-04T01:22:15.340Z,1.52
2022-10-04T01:25:52.410Z,1.92
2022-10-04T01:28:56.612Z,1.65
2022-10-04T01:32:00.575Z,1.88
2022-10-04T01:35:07.572Z,2.28
2022-10-04T01:38:13.334Z,1.70
2022-10-04T01:41:20.457Z,1.65
2022-10-04T01:44:37.433Z,1.98
2022-10-04T01:47:49.533Z,1.77
2022-10-04T01:51:05.062Z,1.73
2022-10-04T01:54:16.075Z,2.30
2022-10-04T01:57:34.543Z,2.53
2022-10-04T02:00:49.861Z,2.30
2022-10-04T02:04:02.179Z,1.80
2022-10-04T02:07:12.748Z,1.80
2022-10-04T02:10:21.108Z,1.52
2022-10-04T02:13:30.310Z,2.00
2022-10-04T02:16:38.662Z,1.80
2022-10-04T02:19:43.508Z,2.20
2022-10-04T02:22:49.726Z,1.88
2022-10-04T02:25:52.880Z,1.98
2022-10-04T02:28:55.048Z,1.98
2022-10-04T02:32:16.253Z,1.60
2022-10-04T02:35:20.111Z,1.65
2022-10-04T02:38:32.282Z,1.55
2022-10-04T02:41:49.427Z,2.03
2022-10-04T02:45:00.483Z,1.88
2022-10-04T02:48:14.445Z,1.90
2022-10-04T02:51:33.621Z,1.95
2022-10-04T02:57:58.666Z,3.83
2022-10-04T03:01:02.079Z,3.50
2022-10-04T03:04:04.774Z,3.60
2022-10-04T03:07:09.570Z,2.00
2022-10-04T03:10:13.721Z,2.28
2022-10-04T03:13:18.115Z,1.83
2022-10-04T03:16:21.948Z,2.05
2022-10-04T03:19:27.454Z,2.17
2022-10-04T03:22:29.565Z,1.70
2022-10-04T03:25:45.471Z,1.65
2022-10-04T03:28:48.702Z,2.03
2022-10-04T03:31:57.605Z,2.15
2022-10-04T03:35:03.174Z,1.77
2022-10-04T03:38:09.285Z,1.67
2022-10-04T03:41:14.015Z,2.05
2022-10-04T03:44:18.979Z,1.80
2022-10-04T03:47:26.899Z,1.70
2022-10-04T03:50:34.389Z,2.53
2022-10-04T03:53:43.624Z,1.92
2022-10-04T03:56:47.495Z,2.60
2022-10-04T03:59:51.259Z,2.63
2022-10-04T04:02:59.908Z,2.75
2022-10-04T04:06:09.873Z,2.42
2022-10-04T04:09:39.453Z,2.15
2022-10-04T04:12:48.010Z,2.00
2022-10-04T04:18:58.953Z,1.75
2022-10-04T04:22:01.127Z,2.40
2022-10-04T04:25:08.457Z,1.75
2022-10-04T04:28:29.037Z,2.35
2022-10-04T04:31:51.043Z,2.28
2022-10-04T04:34:54.176Z,2.72
2022-10-04T04:38:05.139Z,2.50
2022-10-04T04:41:10.697Z,2.83
2022-10-04T04:44:18.358Z,2.00
2022-10-04T04:47:26.583Z,2.33
2022-10-04T04:50:41.299Z,2.22
2022-10-04T04:53:43.602Z,2.55
2022-10-04T04:56:49.429Z,2.85
2022-10-04T04:59:59.301Z,2.10
2022-10-04T05:03:03.776Z,2.05
2022-10-04T05:06:24.018Z,2.15
2022-10-04T05:09:28.922Z,1.98
2022-10-04T05:12:32.665Z,2.53
2022-10-04T05:15:41.081Z,2.67
2022-10-04T05:18:44.091Z,2.10
2022-10-04T05:21:49.688Z,2.95
2022-10-04T05:24:59.653Z,2.30
2022-10-04T05:28:02.413Z,3.92
2022-10-04T05:31:59.647Z,2.90
2022-10-04T05:35:04.353Z,2.05
2022-10-04T05:38:15.633Z,3.00
2022-10-04T05:41:24.213Z,2.00
2022-10-04T05:44:37.649Z,2.45
2022-10-04T05:47:41.144Z,2.35
2022-10-04T05:50:44.368Z,2.28
2022-10-04T05:53:47.215Z,2.55
2022-10-04T05:57:02.049Z,2.35
2022-10-04T06:00:13.817Z,2.42
2022-10-04T06:03:49.432Z,2.00
2022-10-04T06:06:58.403Z,1.58
2022-10-04T06:10:39.744Z,1.38
2022-10-04T06:14:09.322Z,1.20
2022-10-04T06:17:30.673Z,1.38
2022-10-04T06:20:44.828Z,1.58
2022-10-04T06:24:14.690Z,0.85
2022-10-04T06:27:45.628Z,0.98
2022-10-04T06:30:56.691Z,1.17
2022-10-04T06:34:19.903Z,0.88
2022-10-04T06:37:31.019Z,1.30
2022-10-04T06:40:48.705Z,1.00
2022-10-04T06:44:04.689Z,0.82
2022-10-04T06:47:20.158Z,1.33
2022-10-04T06:50:38.637Z,1.33
2022-10-04T06:54:02.295Z,1.42
2022-10-04T06:57:23.685Z,1.30
2022-10-04T07:00:35.265Z,1.23
2022-10-04T07:03:54.670Z,0.98
2022-10-04T07:07:25.478Z,1.00
2022-10-04T07:10:33.592Z,1.00
2022-10-04T07:13:49.018Z,1.10
2022-10-04T07:16:56.518Z,1.33
2022-10-04T07:20:01.897Z,1.40
2022-10-04T07:23:34.553Z,1.63
2022-10-04T07:26:47.491Z,1.48
2022-10-04T07:29:55.470Z,1.40
2022-10-04T07:33:01.555Z,1.38
2022-10-04T07:36:17.590Z,1.17
2022-10-04T07:39:33.641Z,1.80
2022-10-04T07:42:44.512Z,1.63
2022-10-04T07:45:49.451Z,1.10
2022-10-04T07:48:55.563Z,1.42
2022-10-04T07:52:16.683Z,1.20
2022-10-04T07:55:28.856Z,1.42
2022-10-04T08:01:19.624Z,0.93
2022-10-04T08:04:46.527Z,1.85
2022-10-04T08:08:16.823Z,1.08
2022-10-04T08:11:44.700Z,1.15
2022-10-04T08:15:17.243Z,1.50
2022-10-04T08:18:34.639Z,1.13
2022-10-04T08:21:56.975Z,1.30
2022-10-04T08:25:26.932Z,1.70
2022-10-04T08:29:19.925Z,1.30
2022-10-04T08:32:24.853Z,1.15
2022-10-04T08:35:36.516Z,1.42
2022-10-04T08:38:38.718Z,1.65
2022-10-04T08:42:24.819Z,1.17
2022-10-04T08:45:58.331Z,1.25
2022-10-04T08:49:14.428Z,1.52
2022-10-04T08:52:41.043Z,1.10
2022-10-04T08:56:18.396Z,1.65
2022-10-04T08:59:46.727Z,1.30
2022-10-04T09:03:38.390Z,1.77
2022-10-04T09:07:03.578Z,1.42
2022-10-04T09:10:36.437Z,1.50
2022-10-04T09:13:57.623Z,0.85
2022-10-04T09:17:21.997Z,1.48
2022-10-04T09:20:53.684Z,1.60
2022-10-04T09:24:14.398Z,1.63
2022-10-04T09:27:54.630Z,1.55
2022-10-04T09:31:15.559Z,1.40
2022-10-04T09:34:55.028Z,1.60
2022-10-04T09:38:25.199Z,1.40
2022-10-04T09:41:52.534Z,1.15
2022-10-04T09:45:20.480Z,1.30
2022-10-04T09:48:37.770Z,1.30
2022-10-04T09:52:02.859Z,0.73
2022-10-04T09:55:42.798Z,1.95
2022-10-04T09:58:58.635Z,1.20
2022-10-04T10:02:26.703Z,0.85
2022-10-04T10:05:49.934Z,1.95
2022-10-04T10:09:10.092Z,1.08
2022-10-04T10:12:48.129Z,1.20
2022-10-04T10:16:08.732Z,1.70
2022-10-04T10:19:35.099Z,1.20
2022-10-04T10:22:55.195Z,1.15
2022-10-04T10:26:24.173Z,2.30
2022-10-04T10:29:55.455Z,1.38
2022-10-04T10:33:26.932Z,1.20
2022-10-04T10:36:34.856Z,1.05
2022-10-04T10:40:16.897Z,1.52
2022-10-04T10:43:41.544Z,1.42
2022-10-04T10:47:11.552Z,0.93
2022-10-04T10:51:04.452Z,1.10
2022-10-04T10:54:25.448Z,0.98
2022-10-04T10:57:45.722Z,0.93
2022-10-04T11:01:31.140Z,1.20
2022-10-04T11:04:38.663Z,0.82
2022-10-04T11:07:56.412Z,1.00
2022-10-04T11:11:15.068Z,1.02
2022-10-04T11:15:08.252Z,0.82
2022-10-04T11:18:34.731Z,1.42
2022-10-04T11:21:51.465Z,1.10
2022-10-04T11:25:08.490Z,0.90
2022-10-04T11:28:17.016Z,1.00
2022-10-04T11:31:47.075Z,1.10
2022-10-04T11:35:12.135Z,0.90
2022-10-04T11:38:31.413Z,1.13
2022-10-04T11:42:41.680Z,1.00
2022-10-04T11:46:16.447Z,0.52
2022-10-04T11:49:21.241Z,1.25
2022-10-04T11:53:03.325Z,0.70
2022-10-04T11:56:29.862Z,0.95
2022-10-04T11:59:40.868Z,1.20
2022-10-04T12:03:10.994Z,1.55
2022-10-04T12:06:50.482Z,1.08
2022-10-04T12:10:04.509Z,0.90
2022-10-04T12:13:34.731Z,1.20
2022-10-04T12:16:49.218Z,1.10
2022-10-04T12:20:34.389Z,1.00
2022-10-04T12:24:03.563Z,0.80
2022-10-04T12:27:28.747Z,1.00
2022-10-04T12:30:34.561Z,0.73
2022-10-04T12:33:54.227Z,0.70
2022-10-04T12:37:18.173Z,1.10
2022-10-04T12:40:26.156Z,1.10
2022-10-04T12:43:46.740Z,1.13
2022-10-04T12:46:49.741Z,1.10
2022-10-04T12:49:57.935Z,0.70
2022-10-04T12:53:14.800Z,1.58
2022-10-04T12:56:29.416Z,0.80
2022-10-04T12:59:37.074Z,2.38
2022-10-04T13:03:19.183Z,0.87
2022-10-04T13:06:55.791Z,0.88
2022-10-04T13:10:25.096Z,1.83
2022-10-04T13:13:47.180Z,0.85
2022-10-04T13:20:23.137Z,0.70
2022-10-04T13:23:43.412Z,1.50
2022-10-04T13:27:03.619Z,0.85
2022-10-04T13:30:26.503Z,1.17
2022-10-04T13:33:46.375Z,1.65
2022-10-04T13:37:15.133Z,0.98
2022-10-04T13:40:30.291Z,1.13
2022-10-04T13:44:01.655Z,1.58
2022-10-04T13:47:25.278Z,1.45
2022-10-04T13:50:43.662Z,1.60
2022-10-04T13:54:36.895Z,1.15
2022-10-04T13:58:11.186Z,1.50
2022-10-04T14:01:41.474Z,1.63
2022-10-04T14:05:16.095Z,1.38
2022-10-04T14:08:50.850Z,1.13
2022-10-04T14:12:16.637Z,1.15
2022-10-04T14:15:33.527Z,0.95
2022-10-04T14:19:05.293Z,1.30
2022-10-04T14:22:26.295Z,1.23
2022-10-04T14:25:43.176Z,0.90
2022-10-04T14:28:58.370Z,1.25
2022-10-04T14:32:20.933Z,1.50
2022-10-04T14:35:48.830Z,1.17
2022-10-04T14:39:03.260Z,1.00
2022-10-04T14:42:48.740Z,1.50
2022-10-04T14:46:13.758Z,1.13
2022-10-04T14:49:36.170Z,1.30
2022-10-04T14:53:01.346Z,1.15
2022-10-04T14:56:17.186Z,1.35
2022-10-04T14:59:31.742Z,1.63
2022-10-04T15:02:33.670Z,1.23
2022-10-04T15:05:54.962Z,1.52
2022-10-04T15:09:12.042Z,2.08
2022-10-04T15:12:58.617Z,1.40
2022-10-04T15:16:28.697Z,2.08
2022-10-04T15:19:49.907Z,1.67
2022-10-04T15:23:08.098Z,2.50
2022-10-04T15:26:19.018Z,2.00
2022-10-04T15:29:31.926Z,1.55
2022-10-04T15:32:45.888Z,1.02
2022-10-04T15:36:39.845Z,1.88
2022-10-04T15:40:28.496Z,1.48
2022-10-04T15:43:32.256Z,1.65
2022-10-04T15:46:45.149Z,1.45
2022-10-04T15:49:57.366Z,2.25
2022-10-04T15:53:39.355Z,1.52
2022-10-04T15:56:41.795Z,1.70
2022-10-04T15:59:55.744Z,1.42
2022-10-04T16:03:18.512Z,1.73
2022-10-04T16:06:26.478Z,1.90
2022-10-04T16:09:49.912Z,1.70
2022-10-04T16:13:14.627Z,1.83
2022-10-04T16:16:21.580Z,1.42
2022-10-04T16:19:48.121Z,1.92
2022-10-04T16:23:28.598Z,2.08
2022-10-04T16:26:30.495Z,1.73
2022-10-04T16:30:29.430Z,1.83
2022-10-04T16:33:51.654Z,1.90
2022-10-04T16:37:26.299Z,1.25
2022-10-04T16:40:38.416Z,1.58
2022-10-04T16:43:54.405Z,1.55
2022-10-04T16:47:02.160Z,1.70
2022-10-04T16:50:06.811Z,1.83
2022-10-04T16:53:27.118Z,2.50
2022-10-04T16:56:34.934Z,2.50
2022-10-04T16:59:37.105Z,1.67
2022-10-04T17:03:01.321Z,2.10
2022-10-04T17:06:14.341Z,2.58
2022-10-04T17:09:27.616Z,3.03
2022-10-04T17:13:07.256Z,2.88
2022-10-04T17:16:36.546Z,3.08
2022-10-04T17:19:54.253Z,3.30
2022-10-04T17:23:18.074Z,2.90
2022-10-04T17:26:30.005Z,3.78
2022-10-04T17:29:58.508Z,2.58
2022-10-04T17:33:18.045Z,3.50
2022-10-04T17:36:28.804Z,4.22
2022-10-04T17:39:33.617Z,3.17
2022-10-04T17:43:03.176Z,3.03
2022-10-04T17:46:28.216Z,4.03
2022-10-04T17:50:06.046Z,3.47
2022-10-04T17:53:42.253Z,4.20
2022-10-04T17:56:59.115Z,3.72
2022-10-04T18:00:10.341Z,3.88
2022-10-04T18:03:19.431Z,4.03
2022-10-04T18:06:43.362Z,5.13
2022-10-04T18:09:49.275Z,4.63
2022-10-04T18:12:56.115Z,4.63
2022-10-04T18:16:14.604Z,4.38
2022-10-04T18:19:49.609Z,5.15
2022-10-04T18:23:14.064Z,3.95
2022-10-04T18:26:18.534Z,5.03
2022-10-04T18:29:36.323Z,5.15
2022-10-04T18:32:38.689Z,6.32
2022-10-04T18:36:09.461Z,5.25
2022-10-04T18:39:11.444Z,5.78
2022-10-04T18:42:39.622Z,4.88
2022-10-04T18:46:23.251Z,4.93
2022-10-04T18:49:30.543Z,6.13
2022-10-04T18:53:00.399Z,5.10
2022-10-04T18:56:08.994Z,5.65
2022-10-04T18:59:50.926Z,7.13
2022-10-04T19:03:04.544Z,5.22
2022-10-04T19:06:15.693Z,4.88
2022-10-04T19:09:26.830Z,5.65
2022-10-04T19:12:54.867Z,5.82
2022-10-04T19:15:57.200Z,6.22
2022-10-04T19:19:27.707Z,6.43
2022-10-04T19:22:30.890Z,7.30
2022-10-04T19:25:35.512Z,7.28
2022-10-04T19:28:39.537Z,5.72
2022-10-04T19:32:19.909Z,9.00
2022-10-04T19:38:55.786Z,18.08
2022-10-04T19:42:00.619Z,16.88
2022-10-04T19:45:16.432Z,15.50
2022-10-04T19:48:25.822Z,8.88
2022-10-04T19:51:45.865Z,9.60
2022-10-04T19:54:56.947Z,9.52
2022-10-04T19:58:16.911Z,7.70
2022-10-04T20:01:23.305Z,7.20
2022-10-04T20:04:38.656Z,8.90
2022-10-04T20:07:41.384Z,7.45
2022-10-04T20:10:44.435Z,7.55
2022-10-04T20:14:09.462Z,7.95
2022-10-04T20:17:30.596Z,14.02
2022-10-04T20:20:41.184Z,22.10
2022-10-04T20:23:48.780Z,21.13
2022-10-04T20:27:01.609Z,17.02
2022-10-04T20:30:14.356Z,16.77
2022-10-04T20:33:46.580Z,18.25
2022-10-04T20:36:51.689Z,11.68
2022-10-04T20:39:56.718Z,8.90
2022-10-04T20:43:14.137Z,10.98
2022-10-04T20:46:24.138Z,15.70
2022-10-04T20:49:27.473Z,16.73
2022-10-04T20:52:31.835Z,19.10
2022-10-04T20:55:37.406Z,18.52
2022-10-04T20:58:40.655Z,17.25
2022-10-04T21:01:45.951Z,15.73
2022-10-04T21:04:52.097Z,13.27
2022-10-04T21:08:23.431Z,9.27
2022-10-04T21:11:44.318Z,10.10
2022-10-04T21:15:02.656Z,7.65
2022-10-04T21:18:11.318Z,8.70
2022-10-04T21:21:20.946Z,8.70
2022-10-04T21:24:40.007Z,8.80
2022-10-04T21:30:46.923Z,7.15
2022-10-04T21:33:51.228Z,6.05
2022-10-04T21:36:53.308Z,7.60
2022-10-04T21:39:56.240Z,5.82
2022-10-04T21:42:58.295Z,6.88
2022-10-04T21:46:00.610Z,6.32
2022-10-04T21:49:04.022Z,7.97
2022-10-04T21:52:06.242Z,7.20
2022-10-04T21:55:10.766Z,6.82
2022-10-04T21:58:13.029Z,7.45
2022-10-04T22:01:15.259Z,5.75
2022-10-04T22:04:17.534Z,6.55
2022-10-04T22:07:19.569Z,5.45
2022-10-04T22:10:21.781Z,5.70
2022-10-04T22:13:24.017Z,5.20
2022-10-04T22:16:26.774Z,5.03
2022-10-04T22:19:28.793Z,3.70
2022-10-04T22:22:34.271Z,4.13
2022-10-04T22:25:40.309Z,4.60
2022-10-04T22:28:45.480Z,4.05
2022-10-04T22:31:51.194Z,3.92
2022-10-04T22:35:01.172Z,4.15
2022-10-04T22:38:08.442Z,3.88
2022-10-04T22:41:14.354Z,3.85
2022-10-04T22:44:18.573Z,4.30
2022-10-04T22:47:20.691Z,3.78
2022-10-04T22:50:27.837Z,3.60
2022-10-04T22:53:29.953Z,3.67
2022-10-04T22:56:32.076Z,3.72
2022-10-04T22:59:40.592Z,3.65
2022-10-04T23:05:45.926Z,3.63
2022-10-04T23:08:47.941Z,3.15
2022-10-04T23:11:50.011Z,3.00
2022-10-04T23:14:52.235Z,2.78
2022-10-04T23:17:55.662Z,2.80
2022-10-04T23:21:00.633Z,2.72
2022-10-04T23:24:17.724Z,3.30
2022-10-04T23:27:20.134Z,2.83
2022-10-04T23:30:22.861Z,2.72
2022-10-04T23:33:24.985Z,2.47
2022-10-04T23:36:27.093Z,2.55
2022-10-04T23:39:32.788Z,2.17
2022-10-04T23:42:36.914Z,2.33
2022-10-04T23:45:42.227Z,2.55
2022-10-04T23:48:44.742Z,2.00
2022-10-04T23:51:48.332Z,2.72
2022-10-04T23:54:52.775Z,2.58
2022-10-04T23:57:54.954Z,2.42
